Time;durP1;ratioP1;P1;durP2;ratioP2;P2;SDS_P1;SDS_P2;PMS_P1;PMS_P2;Temp;Humidity;BMP_temperature;BMP_pressure;BME280_temperature;BME280_humidity;BME280_pressure;Samples;Min_cycle;Max_cycle;Signal;HPM_P1;HPM_P2
2022/03/13 00:00:51;;;;;;;15.43;10.35;;;7.40;98.50;;;;;;5074197;28;20048;-66
2022/03/13 00:03:20;;;;;;;17.13;10.63;;;7.30;98.80;;;;;;5060135;28;20426;-67
2022/03/13 00:05:49;;;;;;;17.17;10.98;;;7.30;98.80;;;;;;5075445;28;20048;-67
2022/03/13 00:08:19;;;;;;;16.83;10.65;;;7.40;98.60;;;;;;5074948;28;20587;-66
2022/03/13 00:10:50;;;;;;;17.13;11.05;;;7.30;98.80;;;;;;5074330;28;20141;-66
2022/03/13 00:13:19;;;;;;;15.35;10.65;;;7.30;98.80;;;;;;5074285;28;20056;-67
2022/03/13 00:15:50;;;;;;;14.63;11.38;;;7.30;98.70;;;;;;5074993;28;20044;-66
2022/03/13 00:18:17;;;;;;;;;;;7.30;98.80;;;;;;5075294;28;20423;-67
2022/03/13 00:20:44;;;;;;;18.60;11.00;;;7.30;98.90;;;;;;5073754;28;19927;-67
2022/03/13 00:23:12;;;;;;;17.85;11.20;;;7.30;98.50;;;;;;5075599;28;20057;-67
2022/03/13 00:25:40;;;;;;;17.65;10.65;;;7.20;98.70;;;;;;5074197;28;20086;-67
2022/03/13 00:28:08;;;;;;;19.98;11.65;;;7.30;99.00;;;;;;5074144;28;20052;-67
2022/03/13 00:30:36;;;;;;;17.38;12.02;;;7.30;98.80;;;;;;5074257;28;20481;-66
2022/03/13 00:33:03;;;;;;;15.68;10.55;;;7.30;99.00;;;;;;5075271;28;20470;-67
2022/03/13 00:35:30;;;;;;;17.92;12.13;;;7.30;98.90;;;;;;5074793;28;20123;-67
2022/03/13 00:37:57;;;;;;;16.60;11.32;;;7.30;98.80;;;;;;5074430;28;20057;-67
2022/03/13 00:40:25;;;;;;;16.15;10.55;;;7.20;98.80;;;;;;5073756;28;20452;-67
2022/03/13 00:42:52;;;;;;;16.23;10.45;;;7.30;99.00;;;;;;5073431;28;20519;-66
2022/03/13 00:45:20;;;;;;;16.48;10.63;;;7.20;99.30;;;;;;5073924;28;20094;-67
2022/03/13 00:47:47;;;;;;;17.10;10.70;;;7.30;99.00;;;;;;5073526;28;20510;-67
2022/03/13 00:50:14;;;;;;;17.92;10.88;;;7.30;99.20;;;;;;5075127;28;20053;-67
2022/03/13 00:52:41;;;;;;;15.70;10.68;;;7.30;99.10;;;;;;5074056;28;20129;-67
2022/03/13 00:55:09;;;;;;;15.85;11.55;;;7.30;99.10;;;;;;5073199;28;20520;-67
2022/03/13 00:57:36;;;;;;;19.40;11.73;;;7.30;99.10;;;;;;5075252;28;20090;-68
2022/03/13 01:00:05;;;;;;;15.55;11.55;;;7.30;99.20;;;;;;5074966;28;20105;-67
2022/03/13 01:02:34;;;;;;;19.98;10.65;;;7.30;99.20;;;;;;5073014;28;20084;-67
2022/03/13 01:05:01;;;;;;;18.13;11.90;;;7.30;99.40;;;;;;5073308;28;20123;-67
2022/03/13 01:07:28;;;;;;;20.15;11.80;;;7.30;99.30;;;;;;5073539;28;20064;-67
2022/03/13 01:09:54;;;;;;;17.02;11.98;;;7.30;99.30;;;;;;5073989;28;20444;-67
2022/03/13 01:12:21;;;;;;;19.02;12.30;;;7.30;99.50;;;;;;5073249;28;20570;-64
2022/03/13 01:14:49;;;;;;;14.98;10.65;;;7.30;99.30;;;;;;5074377;28;20052;-63
2022/03/13 01:17:20;;;;;;;17.02;11.30;;;7.20;99.30;;;;;;5073115;28;20060;-64
2022/03/13 01:19:48;;;;;;;15.65;10.68;;;7.20;99.50;;;;;;5073583;28;20135;-63
2022/03/13 01:22:15;;;;;;;18.00;11.73;;;7.20;99.80;;;;;;5073556;28;20508;-63
2022/03/13 01:24:44;;;;;;;18.88;11.65;;;7.20;99.70;;;;;;5073887;28;20052;-64
2022/03/13 01:27:13;;;;;;;16.48;11.30;;;7.20;99.60;;;;;;5073075;28;20049;-63
2022/03/13 01:29:40;;;;;;;19.02;11.75;;;7.20;99.60;;;;;;5072907;28;20106;-64
2022/03/13 01:32:09;;;;;;;17.30;11.43;;;7.30;99.70;;;;;;5074500;28;20395;-63
2022/03/13 01:34:43;;;;;;;21.58;12.32;;;7.30;99.60;;;;;;5074412;28;20074;-64
2022/03/13 01:37:28;;;;;;;17.55;11.35;;;7.30;99.70;;;;;;5073770;28;20048;-64
2022/03/13 01:39:56;;;;;;;20.17;12.88;;;7.30;99.70;;;;;;5072533;28;20561;-63
2022/03/13 01:42:23;;;;;;;18.52;12.05;;;7.30;99.60;;;;;;5074248;28;20052;-64
2022/03/13 01:44:50;;;;;;;23.45;13.15;;;7.40;99.60;;;;;;5073373;28;20492;-63
2022/03/13 01:47:17;;;;;;;17.73;12.63;;;7.30;99.90;;;;;;5072823;28;20055;-63
2022/03/13 01:49:44;;;;;;;19.58;13.25;;;7.30;99.90;;;;;;5073643;28;20474;-63
2022/03/13 01:52:12;;;;;;;18.23;11.50;;;7.20;99.90;;;;;;5071648;28;20118;-63
2022/03/13 01:54:42;;;;;;;18.55;11.73;;;7.20;99.90;;;;;;5072804;28;20513;-64
2022/03/13 01:57:09;;;;;;;18.30;11.82;;;7.20;99.90;;;;;;5072733;28;20098;-63
2022/03/13 01:59:36;;;;;;;18.67;11.88;;;7.20;99.90;;;;;;5072117;28;20048;-63
2022/03/13 02:02:04;;;;;;;18.05;12.45;;;7.10;99.90;;;;;;5072753;28;20056;-63
2022/03/13 02:04:32;;;;;;;16.33;11.23;;;7.10;99.90;;;;;;5073314;28;20068;-63
2022/03/13 02:06:58;;;;;;;19.70;12.70;;;7.10;99.90;;;;;;5071672;28;20118;-63
2022/03/13 02:09:27;;;;;;;17.67;11.43;;;7.10;99.90;;;;;;5072336;28;20049;-63
2022/03/13 02:11:55;;;;;;;18.13;11.45;;;7.10;99.90;;;;;;5073334;28;20052;-63
2022/03/13 02:14:24;;;;;;;18.35;12.90;;;7.70;99.90;;;;;;5073008;28;20101;-62
2022/03/13 02:16:53;;;;;;;18.73;12.77;;;7.10;99.90;;;;;;5072326;28;20049;-63
2022/03/13 02:19:20;;;;;;;20.30;11.82;;;7.10;99.90;;;;;;5071874;28;20101;-63
2022/03/13 02:21:51;;;;;;;20.20;11.98;;;7.10;99.90;;;;;;5071919;28;20201;-63
2022/03/13 02:24:23;;;;;;;18.45;12.65;;;7.20;99.90;;;;;;5072499;28;20455;-63
2022/03/13 02:26:59;;;;;;;18.27;11.90;;;7.10;99.90;;;;;;5071066;28;20059;-63
2022/03/13 02:29:27;;;;;;;17.80;11.70;;;7.10;99.90;;;;;;5072583;28;20565;-63
2022/03/13 02:31:54;;;;;;;21.60;11.90;;;7.10;99.90;;;;;;5072041;28;20056;-63
2022/03/13 02:34:21;;;;;;;17.88;12.77;;;7.10;99.90;;;;;;5071595;28;20053;-63
2022/03/13 02:36:57;;;;;;;18.35;12.70;;;7.10;99.90;;;;;;5072067;28;20052;-63
2022/03/13 02:39:26;;;;;;;16.23;11.27;;;7.10;99.90;;;;;;5071917;28;20454;-63
2022/03/13 02:41:54;;;;;;;17.02;11.35;;;7.10;99.90;;;;;;5052473;28;20049;-63
2022/03/13 02:44:21;;;;;;;17.55;11.73;;;7.00;99.90;;;;;;5052005;28;20060;-63
2022/03/13 02:46:55;;;;;;;18.60;11.35;;;7.00;99.90;;;;;;5052908;28;20634;-63
2022/03/13 02:49:25;;;;;;;17.98;12.35;;;7.00;99.90;;;;;;5051442;28;20570;-62
2022/03/13 02:51:53;;;;;;;21.17;13.30;;;7.10;99.90;;;;;;5069599;28;20153;-62
2022/03/13 02:54:21;;;;;;;19.77;10.98;;;7.10;99.90;;;;;;5072363;28;20056;-62
2022/03/13 02:56:50;;;;;;;16.88;11.60;;;7.10;99.90;;;;;;5071817;28;20048;-62
2022/03/13 02:59:17;;;;;;;19.05;12.38;;;7.10;99.90;;;;;;5072910;28;20052;-62
2022/03/13 03:01:44;;;;;;;18.02;12.15;;;7.20;99.90;;;;;;5071074;28;20057;-63
2022/03/13 03:04:12;;;;;;;17.38;12.10;;;7.20;99.90;;;;;;5071342;28;20074;-64
2022/03/13 03:06:48;;;;;;;16.85;12.13;;;7.20;99.90;;;;;;5071544;28;20432;-64
2022/03/13 03:09:17;;;;;;;17.85;13.48;;;7.20;99.90;;;;;;5072312;28;20131;-63
2022/03/13 03:11:44;;;;;;;21.42;12.68;;;7.20;99.90;;;;;;5072592;28;20060;-64
2022/03/13 03:14:12;;;;;;;18.27;12.55;;;7.20;99.90;;;;;;5071701;28;20048;-63
2022/03/13 03:16:39;;;;;;;19.90;12.57;;;7.20;99.90;;;;;;5071064;28;20492;-62
2022/03/13 03:19:06;;;;;;;19.48;12.75;;;7.20;99.90;;;;;;5071368;28;20094;-63
2022/03/13 03:21:33;;;;;;;15.30;11.27;;;7.20;99.90;;;;;;5071337;28;20052;-63
2022/03/13 03:24:00;;;;;;;18.15;12.93;;;7.20;99.90;;;;;;5071957;28;20048;-63
2022/03/13 03:26:27;;;;;;;18.42;12.38;;;7.20;99.90;;;;;;5071103;28;20106;-63
2022/03/13 03:28:54;;;;;;;22.50;13.50;;;7.10;99.90;;;;;;5071633;28;20052;-63
2022/03/13 03:31:22;;;;;;;16.27;11.82;;;7.20;99.90;;;;;;5071892;28;20090;-63
2022/03/13 03:33:49;;;;;;;18.73;12.20;;;7.10;99.90;;;;;;5071328;28;20056;-63
2022/03/13 03:36:16;;;;;;;18.52;12.43;;;7.10;99.90;;;;;;5071507;28;20098;-63
2022/03/13 03:38:43;;;;;;;21.20;13.30;;;7.10;99.90;;;;;;5072176;28;20102;-63
2022/03/13 03:41:10;;;;;;;19.42;12.75;;;7.00;99.90;;;;;;5070748;28;20056;-63
2022/03/13 03:43:37;;;;;;;20.77;12.23;;;7.00;99.90;;;;;;5070641;28;20051;-63
2022/03/13 03:46:04;;;;;;;18.85;11.60;;;7.00;99.90;;;;;;5072394;28;20143;-63
2022/03/13 03:48:32;;;;;;;19.10;12.40;;;6.90;99.90;;;;;;5072664;28;20056;-63
2022/03/13 03:50:59;;;;;;;17.90;12.95;;;6.80;99.90;;;;;;5070287;28;20492;-63
2022/03/13 03:53:26;;;;;;;18.02;12.60;;;6.80;99.90;;;;;;5071310;28;20114;-64
2022/03/13 03:55:53;;;;;;;17.92;13.07;;;6.80;99.90;;;;;;5072092;28;20507;-64
2022/03/13 03:58:21;;;;;;;17.45;13.48;;;6.70;99.90;;;;;;5070701;28;20577;-63
2022/03/13 04:00:48;;;;;;;17.73;12.93;;;6.60;99.90;;;;;;5072224;28;20059;-63
2022/03/13 04:03:15;;;;;;;17.40;12.50;;;6.60;99.90;;;;;;5072179;28;20056;-63
2022/03/13 04:05:44;;;;;;;19.85;12.68;;;6.50;99.90;;;;;;5070577;28;20139;-63
2022/03/13 04:08:10;;;;;;;20.02;12.90;;;6.50;99.90;;;;;;5070899;28;20127;-63
2022/03/13 04:10:37;;;;;;;20.00;14.23;;;6.50;99.90;;;;;;5070867;28;20056;-63
2022/03/13 04:13:04;;;;;;;17.58;12.48;;;6.40;99.90;;;;;;5070132;28;20106;-63
2022/03/13 04:15:31;;;;;;;19.23;12.43;;;6.40;99.90;;;;;;5072877;28;20055;-62
2022/03/13 04:17:58;;;;;;;17.33;12.85;;;6.30;99.90;;;;;;5074362;28;20044;-62
2022/03/13 04:20:26;;;;;;;18.20;12.85;;;6.20;99.90;;;;;;5074955;28;20397;-62
2022/03/13 04:22:54;;;;;;;20.50;13.63;;;6.30;99.90;;;;;;5074688;28;20423;-62
2022/03/13 04:25:21;;;;;;;22.35;14.52;;;6.20;99.90;;;;;;5075884;28;20056;-62
2022/03/13 04:27:48;;;;;;;19.42;13.70;;;6.10;99.90;;;;;;5073646;28;20044;-63
2022/03/13 04:30:15;;;;;;;17.92;12.63;;;6.00;99.90;;;;;;5075463;28;20071;-64
2022/03/13 04:32:42;;;;;;;19.80;13.27;;;6.00;99.90;;;;;;5073537;28;20508;-64
2022/03/13 04:35:09;;;;;;;20.90;13.27;;;6.00;99.90;;;;;;5075148;28;20127;-64
2022/03/13 04:37:36;;;;;;;21.17;13.45;;;5.90;99.90;;;;;;5074332;28;20049;-64
2022/03/13 04:40:06;;;;;;;19.92;13.00;;;5.90;99.90;;;;;;5073797;28;20060;-64
2022/03/13 04:42:33;;;;;;;21.08;13.82;;;5.90;99.90;;;;;;5073804;28;20052;-64
2022/03/13 04:45:01;;;;;;;19.30;12.45;;;5.90;99.90;;;;;;5075311;28;20060;-64
2022/03/13 04:47:31;;;;;;;20.05;13.35;;;5.90;99.90;;;;;;5074591;28;20472;-64
2022/03/13 04:49:58;;;;;;;19.55;13.20;;;5.90;99.90;;;;;;5074273;28;20439;-64
2022/03/13 04:52:25;;;;;;;18.15;13.90;;;5.90;99.90;;;;;;5075329;28;20045;-64
2022/03/13 04:54:51;;;;;;;18.38;12.00;;;5.90;99.90;;;;;;5073445;28;20052;-64
2022/03/13 04:57:20;;;;;;;17.73;12.63;;;5.90;99.90;;;;;;5073799;28;20048;-63
2022/03/13 04:59:47;;;;;;;17.95;12.38;;;5.90;99.90;;;;;;5073723;28;20048;-64
2022/03/13 05:02:14;;;;;;;22.42;13.23;;;5.90;99.90;;;;;;5074299;28;20074;-63
2022/03/13 05:04:42;;;;;;;17.55;12.35;;;6.00;99.90;;;;;;5073287;28;20052;-63
2022/03/13 05:07:09;;;;;;;15.23;11.55;;;6.00;99.90;;;;;;5074787;28;20048;-63
2022/03/13 05:09:36;;;;;;;18.88;12.73;;;6.10;99.90;;;;;;5073159;28;20136;-62
2022/03/13 05:12:07;;;;;;;15.93;11.45;;;6.00;99.90;;;;;;5073718;28;20511;-62
2022/03/13 05:14:36;;;;;;;19.10;12.20;;;6.00;99.90;;;;;;5073729;28;20070;-62
2022/03/13 05:17:03;;;;;;;21.15;12.75;;;6.00;99.90;;;;;;5073979;28;20056;-63
2022/03/13 05:19:30;;;;;;;19.42;12.02;;;6.00;99.90;;;;;;5074427;28;20052;-63
2022/03/13 05:21:57;;;;;;;17.38;12.80;;;6.00;99.90;;;;;;5073967;28;20102;-63
2022/03/13 05:24:24;;;;;;;17.05;11.95;;;6.00;99.90;;;;;;5074376;28;20052;-63
2022/03/13 05:26:51;;;;;;;18.42;11.88;;;5.90;99.90;;;;;;5072214;28;20404;-62
2022/03/13 05:29:18;;;;;;;21.55;12.88;;;5.90;99.90;;;;;;5073892;28;20053;-62
2022/03/13 05:31:46;;;;;;;18.00;11.82;;;5.90;99.90;;;;;;5074595;28;20105;-62
2022/03/13 05:34:13;;;;;;;18.00;12.02;;;5.90;99.90;;;;;;5073796;28;20044;-62
2022/03/13 05:36:40;;;;;;;15.63;10.32;;;5.80;99.90;;;;;;5072478;28;20105;-62
2022/03/13 05:39:09;;;;;;;15.68;11.13;;;5.80;99.90;;;;;;5074248;28;20044;-62
2022/03/13 05:41:40;;;;;;;19.67;11.57;;;5.80;99.90;;;;;;5074192;28;20091;-62
2022/03/13 05:44:09;;;;;;;19.17;12.25;;;5.70;99.90;;;;;;5073626;28;20049;-61
2022/03/13 05:46:36;;;;;;;16.60;11.65;;;5.70;99.90;;;;;;5072870;28;20052;-62
2022/03/13 05:49:04;;;;;;;19.40;12.00;;;5.70;99.90;;;;;;5072697;28;20056;-62
2022/03/13 05:51:35;;;;;;;19.65;12.23;;;5.70;99.90;;;;;;5072374;28;20052;-62
2022/03/13 05:54:03;;;;;;;17.67;11.77;;;5.70;99.90;;;;;;5072839;28;20106;-63
2022/03/13 05:56:30;;;;;;;18.02;11.77;;;5.70;99.90;;;;;;5072692;28;20106;-63
2022/03/13 05:58:57;;;;;;;20.13;11.88;;;5.70;99.90;;;;;;5073372;28;20059;-63
2022/03/13 06:01:24;;;;;;;19.70;12.15;;;6.00;99.90;;;;;;5072700;28;20044;-63
2022/03/13 06:03:53;;;;;;;15.80;11.05;;;5.80;99.90;;;;;;5072260;28;20109;-63
2022/03/13 06:06:21;;;;;;;15.93;11.55;;;5.90;99.90;;;;;;5071925;28;20071;-63
2022/03/13 06:08:48;;;;;;;18.25;11.48;;;5.90;99.90;;;;;;5072453;28;20056;-63
2022/03/13 06:11:15;;;;;;;15.27;11.27;;;5.90;99.90;;;;;;5071863;28;20052;-63
2022/03/13 06:13:42;;;;;;;19.35;11.60;;;5.90;99.90;;;;;;5072418;28;20052;-63
2022/03/13 06:16:09;;;;;;;19.25;11.40;;;6.00;99.90;;;;;;5072184;28;20055;-65
2022/03/13 06:18:37;;;;;;;18.27;11.55;;;6.00;99.90;;;;;;5070938;28;20040;-64
2022/03/13 06:21:05;;;;;;;21.38;11.05;;;6.00;99.90;;;;;;5072250;28;20140;-63
2022/03/13 06:23:33;;;;;;;17.02;10.80;;;6.00;99.90;;;;;;5073346;28;20040;-63
2022/03/13 06:26:01;;;;;;;18.20;11.07;;;6.00;99.90;;;;;;5071409;28;20052;-64
2022/03/13 06:28:28;;;;;;;16.27;10.45;;;6.10;99.90;;;;;;5071827;28;20510;-64
2022/03/13 06:30:56;;;;;;;20.48;11.32;;;6.10;99.90;;;;;;5072133;28;20055;-64
2022/03/13 06:33:26;;;;;;;15.45;11.75;;;6.10;99.90;;;;;;5071230;28;20048;-64
2022/03/13 06:35:52;;;;;;;15.05;10.40;;;6.10;99.90;;;;;;5073163;28;20048;-64
2022/03/13 06:38:19;;;;;;;17.65;10.77;;;6.10;99.90;;;;;;5072839;28;20041;-64
2022/03/13 06:40:48;;;;;;;14.02;10.43;;;6.10;99.90;;;;;;5072667;28;20052;-64
2022/03/13 06:43:15;;;;;;;13.98;10.05;;;6.10;99.90;;;;;;5071972;28;20052;-64
2022/03/13 06:45:42;;;;;;;16.17;10.85;;;6.10;99.90;;;;;;5066049;28;20058;-64
2022/03/13 06:48:08;;;;;;;15.95;10.63;;;6.10;99.90;;;;;;5050639;28;20076;-64
2022/03/13 06:50:36;;;;;;;16.13;10.93;;;6.10;99.90;;;;;;5055548;28;20135;-64
2022/03/13 06:53:03;;;;;;;14.88;10.57;;;6.10;99.90;;;;;;5062706;28;20519;-65
2022/03/13 06:55:30;;;;;;;16.35;10.73;;;6.10;99.90;;;;;;5056061;28;20061;-64
2022/03/13 06:57:59;;;;;;;18.63;11.35;;;6.20;99.90;;;;;;5057473;28;20052;-65
2022/03/13 07:00:26;;;;;;;16.75;11.27;;;6.20;99.90;;;;;;5069823;28;20098;-63
2022/03/13 07:02:52;;;;;;;15.23;11.00;;;6.30;99.90;;;;;;5051439;28;20061;-64
2022/03/13 07:05:20;;;;;;;17.52;10.95;;;6.30;99.90;;;;;;5056710;28;20052;-64
2022/03/13 07:07:47;;;;;;;18.20;10.68;;;6.40;99.90;;;;;;5059815;28;20052;-64
2022/03/13 07:10:14;;;;;;;18.63;11.18;;;6.40;99.90;;;;;;5050270;28;20110;-64
2022/03/13 07:12:44;;;;;;;16.67;11.15;;;6.50;99.90;;;;;;5050167;28;20060;-64
2022/03/13 07:15:13;;;;;;;16.88;10.98;;;6.50;99.90;;;;;;5051061;28;20055;-63
2022/03/13 07:17:41;;;;;;;16.85;10.38;;;6.50;99.90;;;;;;5069966;28;20052;-63
2022/03/13 07:20:09;;;;;;;17.40;10.65;;;6.60;99.90;;;;;;5064444;28;20443;-63
2022/03/13 07:22:36;;;;;;;13.90;10.10;;;6.70;99.80;;;;;;5050295;28;20102;-64
2022/03/13 07:25:03;;;;;;;15.90;10.73;;;6.70;99.70;;;;;;5049765;28;20106;-64
2022/03/13 07:27:30;;;;;;;17.48;11.07;;;6.80;99.50;;;;;;5051392;28;20045;-64
2022/03/13 07:29:57;;;;;;;14.93;10.93;;;6.90;99.30;;;;;;5049926;28;20110;-63
2022/03/13 07:32:25;;;;;;;16.65;11.63;;;7.00;99.60;;;;;;5050149;28;20057;-63
2022/03/13 07:34:52;;;;;;;14.65;10.02;;;7.10;98.80;;;;;;5053302;28;20052;-64
2022/03/13 07:37:19;;;;;;;19.23;11.02;;;7.20;98.70;;;;;;5049426;28;20059;-63
2022/03/13 07:39:47;;;;;;;17.65;10.52;;;7.30;98.50;;;;;;5056164;28;20096;-64
2022/03/13 07:42:15;;;;;;;14.73;10.40;;;7.30;98.10;;;;;;5050061;28;20460;-63
2022/03/13 07:44:42;;;;;;;14.27;10.00;;;7.50;98.50;;;;;;5049886;28;20520;-63
2022/03/13 07:47:09;;;;;;;20.08;10.68;;;7.50;98.20;;;;;;5049812;28;20081;-63
2022/03/13 07:49:38;;;;;;;17.58;10.48;;;7.60;98.90;;;;;;5053264;28;20045;-63
2022/03/13 07:52:05;;;;;;;16.17;10.75;;;7.60;98.10;;;;;;5054454;28;20053;-63
2022/03/13 07:54:32;;;;;;;14.07;10.20;;;7.60;97.80;;;;;;5054975;28;20080;-64
2022/03/13 07:56:59;;;;;;;15.50;9.48;;;7.60;97.60;;;;;;5061796;28;20056;-63
2022/03/13 07:59:26;;;;;;;17.88;10.63;;;7.60;97.40;;;;;;5055825;28;20064;-63
2022/03/13 08:01:53;;;;;;;17.80;10.93;;;7.60;97.20;;;;;;5053562;28;20126;-63
2022/03/13 08:04:20;;;;;;;14.98;10.40;;;7.70;97.40;;;;;;5052822;28;20053;-64
2022/03/13 08:06:48;;;;;;;13.80;10.40;;;7.70;97.20;;;;;;5054645;28;20053;-64
2022/03/13 08:09:15;;;;;;;16.27;10.93;;;7.70;97.20;;;;;;5053525;28;20389;-65
2022/03/13 08:11:42;;;;;;;14.68;10.48;;;7.80;97.10;;;;;;5065204;28;20390;-64
2022/03/13 08:14:10;;;;;;;14.68;9.95;;;7.80;96.80;;;;;;5062378;28;20053;-63
2022/03/13 08:16:36;;;;;;;15.23;10.15;;;7.80;96.60;;;;;;5054929;28;20122;-64
2022/03/13 08:19:05;;;;;;;14.98;10.55;;;7.90;96.40;;;;;;5054103;28;20057;-64
2022/03/13 08:21:32;;;;;;;18.83;9.77;;;7.90;96.20;;;;;;5057321;28;20107;-64
2022/03/13 08:24:00;;;;;;;18.92;10.27;;;8.10;96.10;;;;;;5065395;28;20443;-63
2022/03/13 08:26:27;;;;;;;16.85;10.32;;;8.20;96.00;;;;;;5069254;28;20505;-63
2022/03/13 08:28:54;;;;;;;14.65;9.65;;;8.30;95.50;;;;;;5056604;28;20052;-64
2022/03/13 08:31:22;;;;;;;16.33;9.10;;;8.50;95.10;;;;;;5052620;28;20094;-64
2022/03/13 08:33:50;;;;;;;13.68;9.52;;;8.70;94.70;;;;;;5054259;28;20053;-63
2022/03/13 08:36:17;;;;;;;14.88;9.43;;;8.90;95.00;;;;;;5054413;28;20088;-63
2022/03/13 08:38:44;;;;;;;17.98;10.23;;;9.30;94.90;;;;;;5053114;28;20137;-63
2022/03/13 08:41:12;;;;;;;14.68;10.45;;;10.20;94.70;;;;;;5052002;28;20048;-64
2022/03/13 08:43:39;;;;;;;14.77;9.68;;;10.80;92.70;;;;;;5053071;28;20106;-63
2022/03/13 08:46:06;;;;;;;16.10;10.50;;;10.90;91.00;;;;;;5052257;28;20056;-64
2022/03/13 08:48:34;;;;;;;14.57;9.50;;;11.00;91.60;;;;;;5054074;28;20049;-64
2022/03/13 08:51:01;;;;;;;14.95;9.80;;;11.20;91.30;;;;;;5052690;28;20408;-65
2022/03/13 08:53:28;;;;;;;13.23;9.73;;;11.80;90.80;;;;;;5052728;28;20045;-63
2022/03/13 08:55:55;;;;;;;15.73;9.85;;;12.80;89.80;;;;;;5057941;28;20044;-63
2022/03/13 08:58:24;;;;;;;15.70;9.70;;;14.00;84.90;;;;;;5063478;28;20447;-64
2022/03/13 09:00:51;;;;;;;14.45;10.15;;;15.10;84.50;;;;;;5060522;28;20059;-65
2022/03/13 09:03:19;;;;;;;12.90;9.57;;;15.70;81.10;;;;;;5064123;28;20060;-65
2022/03/13 09:05:47;;;;;;;14.70;9.60;;;16.80;81.00;;;;;;5053930;28;20091;-65
2022/03/13 09:08:14;;;;;;;14.32;9.25;;;17.10;77.80;;;;;;5051292;28;20053;-65
2022/03/13 09:10:41;;;;;;;14.32;9.05;;;17.70;74.10;;;;;;5053297;28;20485;-65
2022/03/13 09:13:08;;;;;;;12.90;10.25;;;18.00;72.10;;;;;;5057743;28;20056;-64
2022/03/13 09:15:37;;;;;;;15.00;9.13;;;17.90;68.10;;;;;;5053690;28;20386;-60
2022/03/13 09:18:05;;;;;;;12.90;9.75;;;18.30;71.40;;;;;;5053519;28;20049;-67
2022/03/13 09:20:32;;;;;;;13.75;9.60;;;17.90;68.60;;;;;;5052353;28;20106;-60
2022/03/13 09:22:58;;;;;;;13.40;9.57;;;18.20;69.60;;;;;;5053082;28;20052;-60
2022/03/13 09:25:25;;;;;;;12.60;9.05;;;18.60;68.60;;;;;;5051930;28;20049;-60
2022/03/13 09:27:52;;;;;;;12.80;9.98;;;19.00;67.50;;;;;;5054473;28;20045;-60
2022/03/13 09:30:19;;;;;;;13.70;9.40;;;19.60;67.20;;;;;;5053170;28;20049;-62
2022/03/13 09:32:49;;;;;;;12.45;9.50;;;20.10;64.90;;;;;;5054900;28;20378;-60
2022/03/13 09:35:16;;;;;;;11.90;9.50;;;19.90;61.50;;;;;;5052595;28;20118;-60
2022/03/13 09:37:43;;;;;;;13.82;9.43;;;20.40;61.00;;;;;;5051859;28;20095;-60
2022/03/13 09:40:11;;;;;;;12.23;8.93;;;20.70;61.10;;;;;;5052506;28;20045;-60
2022/03/13 09:42:39;;;;;;;12.82;9.07;;;20.80;59.20;;;;;;5061000;28;20491;-59
2022/03/13 09:45:06;;;;;;;12.10;8.45;;;20.80;60.40;;;;;;5055445;28;20127;-62
2022/03/13 09:47:34;;;;;;;12.85;8.60;;;21.40;60.10;;;;;;5052428;28;20427;-61
2022/03/13 09:50:02;;;;;;;11.85;9.27;;;21.60;61.80;;;;;;5050542;28;20085;-70
2022/03/13 09:52:31;;;;;;;13.10;8.68;;;22.10;59.00;;;;;;5053647;28;20099;-62
2022/03/13 09:54:57;;;;;;;12.23;9.38;;;22.10;56.30;;;;;;5051625;28;20114;-63
2022/03/13 09:57:24;;;;;;;11.55;9.52;;;22.30;57.80;;;;;;5052284;28;20493;-58
2022/03/13 09:59:51;;;;;;;12.82;9.13;;;22.50;54.90;;;;;;5053224;28;20056;-68
2022/03/13 10:02:18;;;;;;;12.73;9.43;;;22.70;56.10;;;;;;5062353;28;20049;-59
2022/03/13 10:04:45;;;;;;;11.88;9.10;;;23.00;53.90;;;;;;5071473;28;20061;-70
2022/03/13 10:07:15;;;;;;;12.85;9.43;;;23.30;55.20;;;;;;5055489;28;20049;-74
2022/03/13 10:09:43;;;;;;;14.00;9.48;;;23.40;54.30;;;;;;5062587;28;20071;-74
2022/03/13 10:12:12;;;;;;;11.32;8.68;;;23.20;53.60;;;;;;5066018;28;20052;-72
2022/03/13 10:14:55;;;;;;;13.30;8.98;;;23.20;53.10;;;;;;5051874;28;20049;-75
2022/03/13 10:17:28;;;;;;;15.27;9.35;;;22.70;51.90;;;;;;5051705;28;20060;-76
2022/03/13 10:19:56;;;;;;;11.60;8.98;;;23.10;51.60;;;;;;5053294;28;20107;-73
2022/03/13 10:22:30;;;;;;;12.43;9.52;;;23.00;53.00;;;;;;5064832;28;20052;-73
2022/03/13 10:24:57;;;;;;;13.50;9.65;;;23.30;50.80;;;;;;5076614;28;20078;-74
2022/03/13 10:27:24;;;;;;;13.80;8.82;;;23.20;52.70;;;;;;5073676;28;20091;-72
2022/03/13 10:29:51;;;;;;;11.32;8.73;;;23.60;53.20;;;;;;5052443;28;20062;-72
2022/03/13 10:32:20;;;;;;;12.50;8.90;;;23.60;51.90;;;;;;5052017;28;20095;-72
2022/03/13 10:34:55;;;;;;;11.80;9.50;;;23.80;52.10;;;;;;5054931;28;20040;-73
2022/03/13 10:37:38;;;;;;;11.10;9.13;;;23.80;50.60;;;;;;5050914;28;20060;-73
2022/03/13 10:40:13;;;;;;;12.27;9.23;;;24.10;50.50;;;;;;5050205;28;20057;-73
2022/03/13 10:42:44;;;;;;;10.25;8.82;;;24.30;51.30;;;;;;5060444;28;20102;-72
2022/03/13 10:45:14;;;;;;;10.93;9.15;;;24.80;51.50;;;;;;5060307;28;20084;-70
2022/03/13 10:47:41;;;;;;;16.55;9.07;;;24.80;50.70;;;;;;5070374;28;20055;-75
2022/03/13 10:50:09;;;;;;;10.35;8.55;;;25.10;50.10;;;;;;5059654;28;20045;-85
2022/03/13 10:52:42;;;;;;;11.70;9.10;;;25.20;49.60;;;;;;5067774;28;20059;-73
2022/03/13 10:55:20;;;;;;;10.43;9.07;;;24.50;48.90;;;;;;5071805;28;20088;-76
2022/03/13 10:57:52;;;;;;;13.45;9.18;;;24.50;47.90;;;;;;5067257;28;20110;-77
2022/03/13 11:00:21;;;;;;;12.70;9.65;;;24.90;49.00;;;;;;5053193;28;20048;-79
2022/03/13 11:02:48;;;;;;;12.15;9.35;;;25.10;49.80;;;;;;5059049;28;20132;-74
2022/03/13 11:05:15;;;;;;;10.95;8.65;;;24.90;49.00;;;;;;5051703;28;20057;-72
2022/03/13 11:07:44;;;;;;;12.48;9.23;;;25.10;48.90;;;;;;5059023;28;20060;-77
2022/03/13 11:10:12;;;;;;;13.13;9.80;;;25.60;48.70;;;;;;5063342;28;20094;-75
2022/03/13 11:12:40;;;;;;;11.15;8.80;;;25.60;48.60;;;;;;5069149;28;20071;-77
2022/03/13 11:15:11;;;;;;;13.82;9.43;;;25.90;48.70;;;;;;5054116;28;20106;-76
2022/03/13 11:17:40;;;;;;;14.35;8.93;;;25.80;48.20;;;;;;5064392;28;20571;-75
2022/03/13 11:20:09;;;;;;;9.77;8.48;;;26.00;48.40;;;;;;5063742;28;20072;-73
2022/03/13 11:22:37;;;;;;;12.10;9.80;;;26.00;48.10;;;;;;5066305;28;20127;-71
2022/03/13 11:25:07;;;;;;;13.23;9.45;;;26.00;48.30;;;;;;5062551;28;20462;-71
2022/03/13 11:27:37;;;;;;;11.75;9.40;;;25.70;47.60;;;;;;5054517;28;20048;-71
2022/03/13 11:30:06;;;;;;;12.50;8.68;;;25.50;47.90;;;;;;5065918;28;20045;-70
2022/03/13 11:32:42;;;;;;;11.73;9.55;;;25.60;48.10;;;;;;5060663;28;20552;-70
2022/03/13 11:35:27;;;;;;;13.25;9.88;;;25.70;47.70;;;;;;5053878;28;20052;-70
2022/03/13 11:37:56;;;;;;;10.27;9.07;;;25.70;48.10;;;;;;5053548;28;20045;-70
2022/03/13 11:40:36;;;;;;;12.98;9.45;;;25.70;48.20;;;;;;5059466;28;20040;-70
2022/03/13 11:43:08;;;;;;;11.02;8.93;;;25.60;47.00;;;;;;5055116;28;20091;-70
2022/03/13 11:45:39;;;;;;;10.50;8.52;;;25.20;47.90;;;;;;5055722;28;20079;-70
2022/03/13 11:48:36;;;;;;;10.57;8.43;;;25.80;47.60;;;;;;5054215;28;20103;-70
2022/03/13 11:51:05;;;;;;;10.52;8.45;;;26.00;47.60;;;;;;5054777;28;20071;-71
2022/03/13 11:53:42;;;;;;;10.13;8.48;;;26.10;47.10;;;;;;5054950;28;20049;-76
2022/03/13 11:56:10;;;;;;;10.40;8.68;;;25.10;47.90;;;;;;5060451;28;20055;-74
2022/03/13 11:58:45;;;;;;;11.27;8.05;;;25.00;48.50;;;;;;5064726;28;20036;-73
2022/03/13 12:01:16;;;;;;;10.15;8.73;;;25.70;47.90;;;;;;5053985;28;20057;-73
2022/03/13 12:04:16;;;;;;;10.48;8.40;;;25.50;48.00;;;;;;5061838;28;20500;-72
2022/03/13 12:06:45;;;;;;;11.05;8.25;;;26.00;47.40;;;;;;5056461;28;20057;-73
2022/03/13 12:09:13;;;;;;;10.98;8.20;;;25.40;47.50;;;;;;5066526;28;20099;-73
2022/03/13 12:11:43;;;;;;;10.63;8.43;;;25.80;48.00;;;;;;5061612;28;20057;-74
2022/03/13 12:14:12;;;;;;;10.75;8.75;;;25.40;47.30;;;;;;5074445;28;20048;-74
2022/03/13 12:16:41;;;;;;;11.98;8.60;;;25.90;47.80;;;;;;5068500;28;20055;-74
2022/03/13 12:19:09;;;;;;;14.00;9.23;;;25.80;47.30;;;;;;5063061;28;20053;-75
2022/03/13 12:21:37;;;;;;;9.82;7.82;;;25.90;47.80;;;;;;5053270;28;20072;-74
2022/03/13 12:24:14;;;;;;;10.45;8.55;;;25.70;47.50;;;;;;5053189;28;20503;-74
2022/03/13 12:26:43;;;;;;;11.00;8.30;;;25.80;47.10;;;;;;5063396;28;20049;-74
2022/03/13 12:29:14;;;;;;;10.30;8.20;;;25.50;47.00;;;;;;5066746;28;20049;-74
2022/03/13 12:31:42;;;;;;;10.10;8.25;;;25.70;47.10;;;;;;5053621;28;20099;-73
2022/03/13 12:34:10;;;;;;;10.55;9.10;;;25.40;47.30;;;;;;5066668;28;20644;-73
2022/03/13 12:36:39;;;;;;;13.98;9.10;;;25.10;47.30;;;;;;5053643;28;20049;-73
2022/03/13 12:39:11;;;;;;;11.50;8.65;;;25.60;47.30;;;;;;5052710;28;20056;-74
2022/03/13 12:41:43;;;;;;;10.25;7.80;;;25.20;47.30;;;;;;5060750;28;20099;-73
2022/03/13 12:44:13;;;;;;;10.80;8.80;;;25.20;47.00;;;;;;5053860;28;20087;-74